TAMU Turf Lab's Hourly Summary for Sunday, May 13, 2018
Hour Temp
(f)
RH
(%)
Solar Rad.
(MJ/m2)
Rainfall
(in)
Wind
(mph)
5/13/2018 12:00 AM 75 73 0 0 7.15
5/13/2018 1:00 AM 74 79 0 0 7.49
5/13/2018 2:00 AM 73 83 0 0 6.71
5/13/2018 3:00 AM 73 87 0 0 6.62
5/13/2018 4:00 AM 73 87 0 0 5.68
5/13/2018 5:00 AM 72 89 0 0 4.83
5/13/2018 6:00 AM 72 89 0 0 5.87
5/13/2018 7:00 AM 72 88 0.01 0 5.41
5/13/2018 8:00 AM 73 88 0.24 0 5.08
5/13/2018 9:00 AM 74 82 0.56 0 6.39
5/13/2018 10:00 AM 75 72 1.2 0 6.88
5/13/2018 11:00 AM 78 62 2.03 0 8.21
5/13/2018 12:00 PM 81 58 2.43 0 7.51
5/13/2018 1:00 PM 82 55 2.4 0 6.22
5/13/2018 2:00 PM 85 51 3.01 0 7.16
5/13/2018 3:00 PM 86 47 2.52 0 7.47
5/13/2018 4:00 PM 87 44 2.44 0 8.13
5/13/2018 5:00 PM 89 42 2.32 0 7.82
5/13/2018 6:00 PM 89 42 1.7 0 8.01
5/13/2018 7:00 PM 87 43 0.95 0 7.63
5/13/2018 8:00 PM 85 47 0.3 0 8.35
5/13/2018 9:00 PM 83 56 0.01 0 9.71
5/13/2018 10:00 PM 80 61 0 0 7.97
5/13/2018 11:00 PM 78 66 0 0 7.8
Data Summary 79 66 22.12 0.00 7.09